Morris Ranch, Texas
Current Conditions -  °F | °C
As of 1:15 AM on Sunday 23 Nov 2014 (Local Time) from KT82 Reporting Station
Clear Clear  
Wind Chill: 53°   Ceiling: Unl
Heat Index: 53°   Visibility: 10mi
Dew Point: 52°   Wind: 0mph
Humidity: 97%   Direction: NA
Pressure: 29.71"   Gusts: NA
Location:  30.3069°N, 98.8978°W
Report Text: KT82 230715Z AUTO 00000KT 10SM CLR 12/11 A2971 RMK AO2 T01150111
Loading
Personal Weather Stations






























Interactive Weather Map New forecast layout! Learn more

10-Day Weather Forecast

Advertisements
Track Severe Weather on mobile